TKJ143 LTFJ-OMDB
Flight info
| Callsign | TKJ143 |
|---|---|
| Flight time | 4h 53m |
| Altitude | 33000 |
| Route | ROXUK UN617 IRGAK UM855 LEMDA UA16 TOMBI DCT KOMEZ M855 RASDA A16 CVO L315 OBTAV/N0462F350 L315 HGD M872 EVANO J852 EGVED M872 PMA Y214 GOKSA J852 BDB Y214 NAGUB M321 AMBAG DCT 21N051E DCT DANOK M318 ATUDO DCT LORID |
| Aircraft | A21N/M-SDE2E3FGHIRWXY/LB1 |
Departure
| Time | 2026-04-21 19:56 |
|---|---|
| Airport | Istanbul Sabiha Gökçen International Airport (LTFJ) |
Arrival
| Time | 2026-04-22 00:49 |
|---|---|
| Airport | Dubai International Airport (OMDB) |
| Time | Latitude | Longitude | Altitude | Speed | Heading |
|---|---|---|---|---|---|
| 2026-04-21 19:39 | 40.90189 | 29.30999 | 323 ft | 0 kts | 154° |
| 2026-04-21 19:48 | 40.90207 | 29.30988 | 323 ft | 4 kts | 154° |
| 2026-04-21 19:48 | 40.90231 | 29.30973 | 323 ft | 4 kts | 158° |
| 2026-04-21 19:49 | 40.90257 | 29.30962 | 323 ft | 4 kts | 166° |
| 2026-04-21 19:49 | 40.90283 | 29.30956 | 323 ft | 4 kts | 179° |
| 2026-04-21 19:49 | 40.90293 | 29.30956 | 323 ft | 3 kts | 184° |
| 2026-04-21 19:51 | 40.90283 | 29.30954 | 323 ft | 3 kts | 196° |
| 2026-04-21 19:51 | 40.90256 | 29.30919 | 322 ft | 8 kts | 238° |
| 2026-04-21 19:51 | 40.90207 | 29.30874 | 323 ft | 12 kts | 164° |
| 2026-04-21 19:52 | 40.90126 | 29.30930 | 321 ft | 14 kts | 156° |
| 2026-04-21 19:52 | 40.90047 | 29.30874 | 321 ft | 16 kts | 249° |
| 2026-04-21 19:52 | 40.89996 | 29.30733 | 321 ft | 18 kts | 244° |
| 2026-04-21 19:52 | 40.89941 | 29.30585 | 323 ft | 18 kts | 243° |
| 2026-04-21 19:53 | 40.89881 | 29.30430 | 323 ft | 19 kts | 243° |
| 2026-04-21 19:53 | 40.89821 | 29.30267 | 322 ft | 20 kts | 244° |
| 2026-04-21 19:53 | 40.89759 | 29.30096 | 321 ft | 21 kts | 244° |
| 2026-04-21 19:53 | 40.89694 | 29.29918 | 320 ft | 22 kts | 244° |
| 2026-04-21 19:54 | 40.89626 | 29.29734 | 322 ft | 23 kts | 244° |
| 2026-04-21 19:54 | 40.89557 | 29.29545 | 321 ft | 24 kts | 243° |
| 2026-04-21 19:54 | 40.89484 | 29.29347 | 322 ft | 22 kts | 244° |
| 2026-04-21 19:54 | 40.89420 | 29.29259 | 322 ft | 14 kts | 185° |
| 2026-04-21 19:55 | 40.89323 | 29.29302 | 321 ft | 16 kts | 155° |
| 2026-04-21 19:55 | 40.89279 | 29.29356 | 322 ft | 7 kts | 78° |
| 2026-04-21 19:55 | 40.89302 | 29.29422 | 323 ft | 13 kts | 65° |
| 2026-04-21 19:55 | 40.89452 | 29.29834 | 322 ft | 85 kts | 64° |
| 2026-04-21 19:56 | 40.89812 | 29.30808 | 323 ft | 149 kts | 64° |
| 2026-04-21 19:56 | 40.90289 | 29.32147 | 749 ft | 163 kts | 64° |
| 2026-04-21 19:56 | 40.90774 | 29.33523 | 1401 ft | 170 kts | 61° |
| 2026-04-21 19:56 | 40.91322 | 29.34966 | 1958 ft | 184 kts | 62° |
| 2026-04-21 19:57 | 40.91907 | 29.36544 | 2465 ft | 199 kts | 63° |
| 2026-04-21 19:57 | 40.92544 | 29.38281 | 2836 ft | 222 kts | 65° |
| 2026-04-21 19:57 | 40.92945 | 29.40332 | 3277 ft | 241 kts | 88° |
| 2026-04-21 19:57 | 40.92582 | 29.42532 | 3913 ft | 253 kts | 116° |
| 2026-04-21 19:58 | 40.91411 | 29.44316 | 4513 ft | 265 kts | 146° |
| 2026-04-21 19:58 | 40.89760 | 29.45451 | 5257 ft | 271 kts | 156° |
| 2026-04-21 19:58 | 40.88018 | 29.46462 | 5991 ft | 276 kts | 156° |
| 2026-04-21 19:58 | 40.86262 | 29.47496 | 6630 ft | 284 kts | 157° |
| 2026-04-21 19:59 | 40.84465 | 29.48592 | 6943 ft | 284 kts | 157° |
| 2026-04-21 19:59 | 40.82685 | 29.49700 | 7087 ft | 280 kts | 157° |
| 2026-04-21 19:59 | 40.80930 | 29.50801 | 7733 ft | 281 kts | 157° |
| 2026-04-21 19:59 | 40.79160 | 29.51915 | 8491 ft | 283 kts | 157° |
| 2026-04-21 20:00 | 40.77398 | 29.53105 | 9201 ft | 287 kts | 150° |
| 2026-04-21 20:00 | 40.75903 | 29.54892 | 9866 ft | 296 kts | 133° |
| 2026-04-21 20:00 | 40.74651 | 29.57056 | 10410 ft | 307 kts | 129° |
| 2026-04-21 20:00 | 40.73358 | 29.59390 | 10737 ft | 325 kts | 129° |
| 2026-04-21 20:01 | 40.71980 | 29.61847 | 11018 ft | 341 kts | 130° |
| 2026-04-21 20:01 | 40.70471 | 29.64334 | 11283 ft | 355 kts | 136° |
| 2026-04-21 20:01 | 40.68583 | 29.66481 | 11540 ft | 365 kts | 150° |
| 2026-04-21 20:01 | 40.66286 | 29.68015 | 11786 ft | 376 kts | 164° |
| 2026-04-21 20:02 | 40.64602 | 29.68613 | 11946 ft | 382 kts | 173° |
| 2026-04-21 20:02 | 40.61000 | 29.68854 | 12295 ft | 394 kts | 184° |
| 2026-04-21 20:02 | 40.58237 | 29.68796 | 12704 ft | 399 kts | 184° |
| 2026-04-21 20:02 | 40.55490 | 29.68747 | 13171 ft | 402 kts | 184° |
| 2026-04-21 20:03 | 40.52683 | 29.68718 | 13657 ft | 405 kts | 184° |
| 2026-04-21 20:03 | 40.49859 | 29.68704 | 14122 ft | 407 kts | 184° |
| 2026-04-21 20:03 | 40.47013 | 29.68696 | 14579 ft | 411 kts | 184° |
| 2026-04-21 20:03 | 40.44147 | 29.68684 | 15092 ft | 413 kts | 184° |
| 2026-04-21 20:04 | 40.41260 | 29.68676 | 15635 ft | 416 kts | 184° |
| 2026-04-21 20:04 | 40.38351 | 29.68669 | 16157 ft | 420 kts | 184° |
| 2026-04-21 20:04 | 40.35423 | 29.68669 | 16672 ft | 422 kts | 184° |
| 2026-04-21 20:04 | 40.32516 | 29.68656 | 17144 ft | 423 kts | 184° |
| 2026-04-21 20:05 | 40.29562 | 29.68655 | 17559 ft | 426 kts | 184° |
| 2026-04-21 20:05 | 40.26583 | 29.68656 | 17969 ft | 428 kts | 184° |
| 2026-04-21 20:05 | 40.23589 | 29.68656 | 18355 ft | 433 kts | 184° |
| 2026-04-21 20:05 | 40.20568 | 29.68647 | 18770 ft | 436 kts | 184° |
| 2026-04-21 20:06 | 40.17523 | 29.68671 | 19189 ft | 439 kts | 181° |
| 2026-04-21 20:06 | 40.14457 | 29.68963 | 19570 ft | 444 kts | 179° |
| 2026-04-21 20:06 | 40.11369 | 29.69315 | 19950 ft | 447 kts | 179° |
| 2026-04-21 20:06 | 40.08295 | 29.69670 | 20317 ft | 450 kts | 179° |
| 2026-04-21 20:07 | 40.05168 | 29.70029 | 20665 ft | 453 kts | 179° |
| 2026-04-21 20:07 | 40.02013 | 29.70389 | 21028 ft | 457 kts | 179° |
| 2026-04-21 20:07 | 39.99914 | 29.70627 | 21298 ft | 459 kts | 179° |
| 2026-04-21 20:07 | 39.95639 | 29.71113 | 21836 ft | 463 kts | 179° |
| 2026-04-21 20:08 | 39.92422 | 29.71479 | 22198 ft | 466 kts | 178° |
| 2026-04-21 20:08 | 39.89197 | 29.72118 | 22521 ft | 473 kts | 171° |
| 2026-04-21 20:08 | 39.86085 | 29.73447 | 22822 ft | 481 kts | 161° |
| 2026-04-21 20:08 | 39.83009 | 29.75182 | 23136 ft | 484 kts | 159° |
| 2026-04-21 20:09 | 39.79930 | 29.76973 | 23459 ft | 486 kts | 159° |
| 2026-04-21 20:09 | 39.76822 | 29.78751 | 23765 ft | 489 kts | 160° |
| 2026-04-21 20:09 | 39.73705 | 29.80510 | 24143 ft | 489 kts | 160° |
| 2026-04-21 20:09 | 39.70584 | 29.82270 | 24545 ft | 489 kts | 160° |
| 2026-04-21 20:10 | 39.67465 | 29.84029 | 24970 ft | 488 kts | 160° |
| 2026-04-21 20:10 | 39.64354 | 29.85777 | 25362 ft | 488 kts | 160° |
| 2026-04-21 20:10 | 39.61277 | 29.87505 | 25751 ft | 487 kts | 160° |
| 2026-04-21 20:10 | 39.58167 | 29.89241 | 26146 ft | 487 kts | 160° |
| 2026-04-21 20:11 | 39.55059 | 29.90981 | 26544 ft | 486 kts | 160° |
| 2026-04-21 20:11 | 39.51957 | 29.92722 | 26920 ft | 486 kts | 160° |
| 2026-04-21 20:11 | 39.48856 | 29.94470 | 27290 ft | 486 kts | 160° |
| 2026-04-21 20:11 | 39.45766 | 29.96221 | 27658 ft | 485 kts | 160° |
| 2026-04-21 20:12 | 39.42673 | 29.97972 | 28017 ft | 484 kts | 160° |
| 2026-04-21 20:12 | 39.39586 | 29.99709 | 28352 ft | 484 kts | 160° |
| 2026-04-21 20:12 | 39.37541 | 30.00858 | 28565 ft | 484 kts | 160° |
| 2026-04-21 20:12 | 39.33455 | 30.03165 | 29000 ft | 483 kts | 160° |
| 2026-04-21 20:13 | 39.30373 | 30.04905 | 29311 ft | 483 kts | 160° |
| 2026-04-21 20:13 | 39.27294 | 30.06635 | 29620 ft | 483 kts | 161° |
| 2026-04-21 20:13 | 39.24215 | 30.08368 | 29898 ft | 483 kts | 161° |
| 2026-04-21 20:13 | 39.21140 | 30.10095 | 30185 ft | 482 kts | 161° |
| 2026-04-21 20:14 | 39.18064 | 30.11833 | 30479 ft | 482 kts | 161° |
| 2026-04-21 20:14 | 39.14991 | 30.13559 | 30750 ft | 482 kts | 161° |
| 2026-04-21 20:14 | 39.11921 | 30.15284 | 31016 ft | 482 kts | 161° |
| 2026-04-21 20:14 | 39.08888 | 30.16990 | 31251 ft | 482 kts | 161° |
| 2026-04-21 20:15 | 39.05810 | 30.18706 | 31494 ft | 482 kts | 161° |
| 2026-04-21 20:15 | 39.02737 | 30.20421 | 31740 ft | 481 kts | 161° |
| 2026-04-21 20:15 | 38.99671 | 30.22139 | 31960 ft | 481 kts | 161° |
| 2026-04-21 20:15 | 38.96601 | 30.23857 | 32173 ft | 481 kts | 161° |
| 2026-04-21 20:16 | 38.93528 | 30.25562 | 32390 ft | 481 kts | 161° |
| 2026-04-21 20:16 | 38.90456 | 30.27266 | 32605 ft | 481 kts | 161° |
| 2026-04-21 20:16 | 38.87423 | 30.28956 | 32818 ft | 481 kts | 161° |
| 2026-04-21 20:16 | 38.84357 | 30.30663 | 33013 ft | 480 kts | 161° |
| 2026-04-21 20:17 | 38.81297 | 30.32367 | 33057 ft | 479 kts | 161° |
| 2026-04-21 20:17 | 38.75189 | 30.35761 | 33029 ft | 478 kts | 161° |
| 2026-04-21 20:18 | 38.70123 | 30.38583 | 33021 ft | 478 kts | 161° |
| 2026-04-21 20:18 | 38.62996 | 30.42536 | 33024 ft | 478 kts | 161° |
| 2026-04-21 20:19 | 38.56940 | 30.45886 | 33028 ft | 477 kts | 161° |
| 2026-04-21 20:19 | 38.50842 | 30.49248 | 33027 ft | 477 kts | 161° |
| 2026-04-21 20:20 | 38.44741 | 30.52609 | 33035 ft | 477 kts | 161° |
| 2026-04-21 20:20 | 38.38648 | 30.55962 | 33037 ft | 477 kts | 161° |
| 2026-04-21 20:21 | 38.32591 | 30.59287 | 33037 ft | 478 kts | 161° |
| 2026-04-21 20:21 | 38.26355 | 30.61995 | 33037 ft | 468 kts | 175° |
| 2026-04-21 20:22 | 38.19917 | 30.62908 | 33048 ft | 465 kts | 180° |
| 2026-04-21 20:22 | 38.10250 | 30.64115 | 33052 ft | 465 kts | 179° |
| 2026-04-21 20:23 | 38.03852 | 30.64952 | 33048 ft | 465 kts | 179° |
| 2026-04-21 20:23 | 37.97411 | 30.65796 | 33052 ft | 466 kts | 179° |
| 2026-04-21 20:24 | 37.90956 | 30.66745 | 33051 ft | 467 kts | 178° |
| 2026-04-21 20:24 | 37.85587 | 30.67493 | 33053 ft | 466 kts | 179° |
| 2026-04-21 20:25 | 37.78083 | 30.68399 | 33051 ft | 466 kts | 180° |
| 2026-04-21 20:25 | 37.71621 | 30.69192 | 33053 ft | 466 kts | 179° |
| 2026-04-21 20:26 | 37.66254 | 30.69855 | 33045 ft | 467 kts | 179° |
| 2026-04-21 20:26 | 37.58697 | 30.70789 | 33049 ft | 467 kts | 179° |
| 2026-04-21 20:27 | 37.52274 | 30.71715 | 33032 ft | 467 kts | 178° |
| 2026-04-21 20:27 | 37.45807 | 30.72654 | 33048 ft | 468 kts | 178° |
| 2026-04-21 20:28 | 37.39345 | 30.73579 | 33043 ft | 467 kts | 179° |
| 2026-04-21 20:28 | 37.33967 | 30.74242 | 33040 ft | 467 kts | 179° |
| 2026-04-21 20:29 | 37.26452 | 30.75164 | 33023 ft | 467 kts | 179° |
| 2026-04-21 20:29 | 37.19983 | 30.75972 | 33034 ft | 467 kts | 179° |
| 2026-04-21 20:30 | 37.13518 | 30.76781 | 33035 ft | 467 kts | 179° |
| 2026-04-21 20:30 | 37.08143 | 30.77450 | 33029 ft | 467 kts | 179° |
| 2026-04-21 20:31 | 37.01668 | 30.78255 | 33022 ft | 467 kts | 179° |
| 2026-04-21 20:31 | 36.95241 | 30.79052 | 33020 ft | 468 kts | 179° |
| 2026-04-21 20:32 | 36.88767 | 30.79575 | 33021 ft | 465 kts | 183° |
| 2026-04-21 20:32 | 36.82306 | 30.79799 | 33020 ft | 464 kts | 184° |
| 2026-04-21 20:33 | 36.75845 | 30.80019 | 33021 ft | 464 kts | 183° |
| 2026-04-21 20:33 | 36.69430 | 30.80241 | 33020 ft | 464 kts | 183° |
| 2026-04-21 20:34 | 36.62975 | 30.80457 | 33023 ft | 464 kts | 183° |
| 2026-04-21 20:34 | 36.55466 | 30.80720 | 33019 ft | 464 kts | 183° |
| 2026-04-21 20:35 | 36.49004 | 30.80944 | 33023 ft | 465 kts | 183° |
| 2026-04-21 20:35 | 36.43625 | 30.81506 | 33028 ft | 467 kts | 180° |
| 2026-04-21 20:36 | 36.37157 | 30.81985 | 33031 ft | 465 kts | 183° |
| 2026-04-21 20:36 | 36.30730 | 30.81761 | 33032 ft | 462 kts | 186° |
| 2026-04-21 20:37 | 36.24276 | 30.81772 | 33032 ft | 465 kts | 184° |
| 2026-04-21 20:37 | 36.17854 | 30.81978 | 33027 ft | 465 kts | 183° |
| 2026-04-21 20:38 | 36.11391 | 30.82198 | 33029 ft | 465 kts | 183° |
| 2026-04-21 20:38 | 36.04927 | 30.82414 | 33027 ft | 465 kts | 183° |
| 2026-04-21 20:39 | 35.98460 | 30.82676 | 33029 ft | 465 kts | 183° |
| 2026-04-21 20:39 | 35.92005 | 30.82970 | 33026 ft | 464 kts | 183° |
| 2026-04-21 20:40 | 35.85591 | 30.83252 | 33027 ft | 464 kts | 183° |
| 2026-04-21 20:40 | 35.79137 | 30.83531 | 33032 ft | 464 kts | 183° |
| 2026-04-21 20:41 | 35.72682 | 30.83812 | 33033 ft | 464 kts | 183° |
| 2026-04-21 20:41 | 35.66228 | 30.84094 | 33034 ft | 464 kts | 183° |
| 2026-04-21 20:42 | 35.59817 | 30.84373 | 33029 ft | 464 kts | 183° |
| 2026-04-21 20:42 | 35.53358 | 30.84654 | 33031 ft | 464 kts | 183° |
| 2026-04-21 20:43 | 35.46903 | 30.84933 | 33029 ft | 464 kts | 183° |
| 2026-04-21 20:43 | 35.40454 | 30.85211 | 33043 ft | 463 kts | 183° |
| 2026-04-21 20:44 | 35.34010 | 30.85489 | 33041 ft | 464 kts | 183° |
| 2026-04-21 20:44 | 35.27604 | 30.85766 | 33039 ft | 464 kts | 183° |
| 2026-04-21 20:45 | 35.21156 | 30.86044 | 33035 ft | 464 kts | 183° |
| 2026-04-21 20:45 | 35.14706 | 30.86322 | 33028 ft | 464 kts | 183° |
| 2026-04-21 20:46 | 35.08257 | 30.86605 | 33034 ft | 463 kts | 183° |
| 2026-04-21 20:46 | 35.01857 | 30.86885 | 33032 ft | 463 kts | 183° |
| 2026-04-21 20:47 | 34.95408 | 30.87158 | 33027 ft | 463 kts | 183° |
| 2026-04-21 20:47 | 34.88965 | 30.87432 | 33031 ft | 464 kts | 183° |
| 2026-04-21 20:48 | 34.82519 | 30.87709 | 33031 ft | 464 kts | 183° |
| 2026-04-21 20:48 | 34.76115 | 30.87981 | 33030 ft | 463 kts | 183° |
| 2026-04-21 20:49 | 34.69675 | 30.88255 | 33032 ft | 463 kts | 183° |
| 2026-04-21 20:49 | 34.63230 | 30.88528 | 33033 ft | 463 kts | 183° |
| 2026-04-21 20:50 | 34.56788 | 30.88801 | 33030 ft | 463 kts | 184° |
| 2026-04-21 20:50 | 34.50390 | 30.89071 | 33028 ft | 463 kts | 183° |
| 2026-04-21 20:51 | 34.43945 | 30.89344 | 33031 ft | 463 kts | 183° |
| 2026-04-21 20:51 | 34.37503 | 30.89617 | 33034 ft | 463 kts | 184° |
| 2026-04-21 20:52 | 34.31070 | 30.89889 | 33043 ft | 463 kts | 184° |
| 2026-04-21 20:52 | 34.24678 | 30.90157 | 33036 ft | 463 kts | 184° |
| 2026-04-21 20:53 | 34.18235 | 30.90493 | 33040 ft | 463 kts | 182° |
| 2026-04-21 20:53 | 34.11800 | 30.90865 | 33042 ft | 463 kts | 183° |
| 2026-04-21 20:54 | 34.05357 | 30.91224 | 33043 ft | 463 kts | 183° |
| 2026-04-21 20:54 | 33.98961 | 30.91579 | 33040 ft | 463 kts | 183° |
| 2026-04-21 20:55 | 33.92529 | 30.91913 | 33043 ft | 462 kts | 184° |
| 2026-04-21 20:55 | 33.86110 | 30.92141 | 33037 ft | 462 kts | 184° |
| 2026-04-21 20:56 | 33.79698 | 30.92375 | 33039 ft | 461 kts | 184° |
| 2026-04-21 20:56 | 33.73332 | 30.92617 | 33044 ft | 461 kts | 184° |
| 2026-04-21 20:57 | 33.66920 | 30.92861 | 33047 ft | 461 kts | 184° |
| 2026-04-21 20:57 | 33.60507 | 30.93105 | 33050 ft | 461 kts | 184° |
| 2026-04-21 20:58 | 33.54096 | 30.93346 | 33050 ft | 461 kts | 184° |
| 2026-04-21 20:58 | 33.47727 | 30.93580 | 33050 ft | 461 kts | 184° |
| 2026-04-21 20:59 | 33.41311 | 30.93820 | 33050 ft | 461 kts | 184° |
| 2026-04-21 20:59 | 33.34909 | 30.94062 | 33050 ft | 460 kts | 184° |
| 2026-04-21 21:00 | 33.28504 | 30.94302 | 33050 ft | 460 kts | 184° |
| 2026-04-21 21:00 | 33.22099 | 30.94543 | 33052 ft | 460 kts | 184° |
| 2026-04-21 21:01 | 33.15743 | 30.94782 | 33060 ft | 460 kts | 184° |
| 2026-04-21 21:01 | 33.09337 | 30.95061 | 33059 ft | 462 kts | 182° |
| 2026-04-21 21:02 | 33.02930 | 30.95767 | 33060 ft | 463 kts | 180° |
| 2026-04-21 21:02 | 32.96580 | 30.97137 | 33060 ft | 466 kts | 176° |
| 2026-04-21 21:03 | 32.90168 | 30.98128 | 33060 ft | 464 kts | 180° |
| 2026-04-21 21:03 | 32.83779 | 30.98412 | 33058 ft | 458 kts | 186° |
| 2026-04-21 21:04 | 32.77393 | 30.98679 | 33059 ft | 461 kts | 182° |
| 2026-04-21 21:04 | 32.71037 | 30.99344 | 33068 ft | 462 kts | 181° |
| 2026-04-21 21:05 | 32.64634 | 31.00063 | 33071 ft | 462 kts | 181° |
| 2026-04-21 21:05 | 32.58229 | 31.00779 | 33070 ft | 462 kts | 181° |
| 2026-04-21 21:06 | 32.51827 | 31.01489 | 33071 ft | 462 kts | 181° |
| 2026-04-21 21:06 | 32.45489 | 31.02738 | 33069 ft | 465 kts | 176° |
| 2026-04-21 21:07 | 32.42301 | 31.03180 | 33060 ft | 456 kts | 187° |
| 2026-04-21 21:07 | 32.39157 | 31.02907 | 33070 ft | 452 kts | 191° |
| 2026-04-21 21:07 | 32.32817 | 31.03449 | 33071 ft | 469 kts | 172° |
| 2026-04-21 21:08 | 32.29631 | 31.04065 | 33066 ft | 458 kts | 185° |
| 2026-04-21 21:08 | 32.26460 | 31.04011 | 33074 ft | 455 kts | 188° |
| 2026-04-21 21:08 | 32.20093 | 31.04170 | 33071 ft | 460 kts | 182° |
| 2026-04-21 21:09 | 32.13740 | 31.04806 | 33070 ft | 461 kts | 181° |
| 2026-04-21 21:09 | 32.07344 | 31.05519 | 33072 ft | 462 kts | 181° |
| 2026-04-21 21:10 | 32.00953 | 31.06222 | 33080 ft | 462 kts | 181° |
| 2026-04-21 21:10 | 31.94567 | 31.06910 | 33080 ft | 458 kts | 181° |
| 2026-04-21 21:11 | 31.88269 | 31.07587 | 33080 ft | 456 kts | 181° |
| 2026-04-21 21:11 | 31.81948 | 31.08265 | 33080 ft | 456 kts | 181° |
| 2026-04-21 21:12 | 31.75622 | 31.08944 | 33080 ft | 457 kts | 181° |
| 2026-04-21 21:12 | 31.69301 | 31.09622 | 33080 ft | 456 kts | 181° |
| 2026-04-21 21:13 | 31.63028 | 31.10293 | 33079 ft | 456 kts | 181° |
| 2026-04-21 21:13 | 31.56717 | 31.10968 | 33081 ft | 456 kts | 181° |
| 2026-04-21 21:14 | 31.50410 | 31.11976 | 33079 ft | 462 kts | 173° |
| 2026-04-21 21:14 | 31.44148 | 31.13729 | 33080 ft | 461 kts | 174° |
| 2026-04-21 21:15 | 31.37892 | 31.15042 | 33081 ft | 459 kts | 177° |
| 2026-04-21 21:15 | 31.31592 | 31.16218 | 33080 ft | 458 kts | 177° |
| 2026-04-21 21:16 | 31.25298 | 31.17389 | 33073 ft | 458 kts | 177° |
| 2026-04-21 21:16 | 31.18999 | 31.18564 | 33071 ft | 458 kts | 177° |
| 2026-04-21 21:17 | 31.12750 | 31.19727 | 33078 ft | 458 kts | 178° |
| 2026-04-21 21:17 | 31.06461 | 31.20895 | 33080 ft | 457 kts | 178° |
| 2026-04-21 21:18 | 31.00176 | 31.22063 | 33073 ft | 458 kts | 178° |
| 2026-04-21 21:18 | 30.93892 | 31.23263 | 33071 ft | 458 kts | 178° |
| 2026-04-21 21:19 | 30.87652 | 31.24428 | 33070 ft | 456 kts | 178° |
| 2026-04-21 21:19 | 30.81384 | 31.25589 | 33071 ft | 457 kts | 178° |
| 2026-04-21 21:20 | 30.75111 | 31.26752 | 33070 ft | 456 kts | 178° |
| 2026-04-21 21:20 | 30.68852 | 31.27901 | 33070 ft | 455 kts | 178° |
| 2026-04-21 21:21 | 30.62603 | 31.29040 | 33070 ft | 455 kts | 178° |
| 2026-04-21 21:21 | 30.56394 | 31.30191 | 33071 ft | 455 kts | 178° |
| 2026-04-21 21:22 | 30.50151 | 31.31343 | 33071 ft | 454 kts | 178° |
| 2026-04-21 21:22 | 30.43912 | 31.32491 | 33071 ft | 454 kts | 178° |
| 2026-04-21 21:23 | 30.37679 | 31.33625 | 33075 ft | 454 kts | 179° |
| 2026-04-21 21:23 | 30.31493 | 31.34763 | 33080 ft | 454 kts | 179° |
| 2026-04-21 21:24 | 30.25259 | 31.35910 | 33082 ft | 453 kts | 179° |
| 2026-04-21 21:24 | 30.19036 | 31.37054 | 33081 ft | 452 kts | 179° |
| 2026-04-21 21:25 | 30.12817 | 31.38221 | 33080 ft | 455 kts | 176° |
| 2026-04-21 21:25 | 30.06843 | 31.40863 | 33079 ft | 477 kts | 155° |
| 2026-04-21 21:26 | 30.01431 | 31.45420 | 33086 ft | 482 kts | 150° |
| 2026-04-21 21:26 | 29.96065 | 31.50074 | 33077 ft | 482 kts | 151° |
| 2026-04-21 21:27 | 29.90675 | 31.54672 | 33066 ft | 482 kts | 151° |
| 2026-04-21 21:27 | 29.85278 | 31.59263 | 33058 ft | 482 kts | 151° |
| 2026-04-21 21:28 | 29.79918 | 31.63816 | 33052 ft | 482 kts | 151° |
| 2026-04-21 21:29 | 29.71824 | 31.70683 | 33048 ft | 482 kts | 151° |
| 2026-04-21 21:29 | 29.66423 | 31.75257 | 33041 ft | 482 kts | 151° |
| 2026-04-21 21:30 | 29.61026 | 31.79822 | 33042 ft | 481 kts | 151° |
| 2026-04-21 21:30 | 29.55665 | 31.84348 | 33039 ft | 482 kts | 151° |
| 2026-04-21 21:31 | 29.50257 | 31.88911 | 33029 ft | 482 kts | 151° |
| 2026-04-21 21:31 | 29.44850 | 31.93475 | 33026 ft | 482 kts | 151° |
| 2026-04-21 21:32 | 29.39452 | 31.98052 | 33023 ft | 483 kts | 151° |
| 2026-04-21 21:32 | 29.34080 | 32.02578 | 33030 ft | 483 kts | 152° |
| 2026-04-21 21:33 | 29.28656 | 32.07122 | 33025 ft | 483 kts | 152° |
| 2026-04-21 21:33 | 29.23229 | 32.11669 | 33021 ft | 483 kts | 152° |
| 2026-04-21 21:34 | 29.17800 | 32.16216 | 33021 ft | 484 kts | 152° |
| 2026-04-21 21:34 | 29.12407 | 32.20733 | 33021 ft | 484 kts | 152° |
| 2026-04-21 21:35 | 29.06969 | 32.25277 | 33021 ft | 484 kts | 152° |
| 2026-04-21 21:35 | 29.01531 | 32.29810 | 33020 ft | 484 kts | 152° |
| 2026-04-21 21:36 | 28.96082 | 32.34350 | 33012 ft | 485 kts | 152° |
| 2026-04-21 21:36 | 28.90657 | 32.38863 | 33012 ft | 485 kts | 152° |
| 2026-04-21 21:37 | 28.85202 | 32.43391 | 33004 ft | 485 kts | 152° |
| 2026-04-21 21:37 | 28.79751 | 32.47905 | 33001 ft | 485 kts | 152° |
| 2026-04-21 21:38 | 28.74289 | 32.52428 | 32996 ft | 486 kts | 152° |
| 2026-04-21 21:38 | 28.68819 | 32.56951 | 32987 ft | 486 kts | 152° |
| 2026-04-21 21:39 | 28.63384 | 32.61442 | 32990 ft | 486 kts | 152° |
| 2026-04-21 21:39 | 28.57912 | 32.65959 | 32981 ft | 486 kts | 152° |
| 2026-04-21 21:40 | 28.52442 | 32.70475 | 32981 ft | 486 kts | 152° |
| 2026-04-21 21:40 | 28.47005 | 32.74952 | 32987 ft | 486 kts | 152° |
| 2026-04-21 21:41 | 28.41529 | 32.79467 | 32974 ft | 486 kts | 152° |
| 2026-04-21 21:41 | 28.36042 | 32.83962 | 32966 ft | 486 kts | 152° |
| 2026-04-21 21:42 | 28.30560 | 32.88447 | 32965 ft | 486 kts | 152° |
| 2026-04-21 21:42 | 28.25105 | 32.92904 | 32960 ft | 486 kts | 152° |
| 2026-04-21 21:43 | 28.19620 | 32.97391 | 32944 ft | 486 kts | 152° |
| 2026-04-21 21:43 | 28.14128 | 33.01881 | 32941 ft | 487 kts | 153° |
| 2026-04-21 21:44 | 28.08631 | 33.06360 | 32940 ft | 487 kts | 153° |
| 2026-04-21 21:44 | 28.03163 | 33.10812 | 32944 ft | 487 kts | 153° |
| 2026-04-21 21:45 | 27.97663 | 33.15288 | 32939 ft | 488 kts | 153° |
| 2026-04-21 21:45 | 27.92148 | 33.19768 | 32941 ft | 488 kts | 153° |
| 2026-04-21 21:46 | 27.86665 | 33.24225 | 32940 ft | 488 kts | 153° |
| 2026-04-21 21:46 | 27.81152 | 33.28696 | 32942 ft | 488 kts | 153° |
| 2026-04-21 21:47 | 27.75629 | 33.33161 | 32943 ft | 488 kts | 153° |
| 2026-04-21 21:47 | 27.70113 | 33.37629 | 32954 ft | 488 kts | 153° |
| 2026-04-21 21:48 | 27.64592 | 33.42097 | 32954 ft | 488 kts | 153° |
| 2026-04-21 21:48 | 27.59106 | 33.46524 | 32951 ft | 488 kts | 153° |
| 2026-04-21 21:49 | 27.53586 | 33.50968 | 32952 ft | 488 kts | 153° |
| 2026-04-21 21:49 | 27.48055 | 33.55407 | 32961 ft | 488 kts | 153° |
| 2026-04-21 21:50 | 27.42530 | 33.59846 | 32958 ft | 488 kts | 153° |
| 2026-04-21 21:50 | 27.37037 | 33.64250 | 32960 ft | 488 kts | 153° |
| 2026-04-21 21:51 | 27.31506 | 33.68678 | 32961 ft | 488 kts | 153° |
| 2026-04-21 21:51 | 27.25971 | 33.73095 | 32960 ft | 488 kts | 153° |
| 2026-04-21 21:52 | 27.20485 | 33.77614 | 32957 ft | 495 kts | 147° |
| 2026-04-21 21:52 | 27.18074 | 33.80440 | 32953 ft | 508 kts | 135° |
| 2026-04-21 21:52 | 27.16193 | 33.83852 | 32959 ft | 521 kts | 121° |
| 2026-04-21 21:53 | 27.13512 | 33.91399 | 32962 ft | 525 kts | 116° |
| 2026-04-21 21:53 | 27.10869 | 33.99027 | 32960 ft | 524 kts | 116° |
| 2026-04-21 21:54 | 27.08162 | 34.06620 | 32960 ft | 524 kts | 117° |
| 2026-04-21 21:54 | 27.05436 | 34.14206 | 32960 ft | 524 kts | 117° |
| 2026-04-21 21:55 | 27.02738 | 34.21740 | 32961 ft | 524 kts | 117° |
| 2026-04-21 21:55 | 27.00016 | 34.29323 | 32959 ft | 524 kts | 117° |
| 2026-04-21 21:56 | 26.97284 | 34.36904 | 32950 ft | 525 kts | 117° |
| 2026-04-21 21:56 | 26.94569 | 34.44497 | 32955 ft | 525 kts | 117° |
| 2026-04-21 21:57 | 26.91846 | 34.52031 | 32960 ft | 525 kts | 117° |
| 2026-04-21 21:57 | 26.89106 | 34.59612 | 32959 ft | 525 kts | 117° |
| 2026-04-21 21:58 | 26.86367 | 34.67194 | 32953 ft | 525 kts | 117° |
| 2026-04-21 21:58 | 26.83614 | 34.74763 | 32951 ft | 525 kts | 117° |
| 2026-04-21 21:59 | 26.80862 | 34.82333 | 32950 ft | 525 kts | 117° |
| 2026-04-21 21:59 | 26.78130 | 34.89849 | 32944 ft | 525 kts | 117° |
| 2026-04-21 22:00 | 26.75369 | 34.97416 | 32942 ft | 525 kts | 117° |
| 2026-04-21 22:00 | 26.72599 | 35.04966 | 32940 ft | 525 kts | 117° |
| 2026-04-21 22:01 | 26.69832 | 35.12536 | 32941 ft | 526 kts | 117° |
| 2026-04-21 22:01 | 26.67080 | 35.20054 | 32931 ft | 526 kts | 117° |
| 2026-04-21 22:02 | 26.64301 | 35.27613 | 32924 ft | 526 kts | 117° |
| 2026-04-21 22:02 | 26.61518 | 35.35165 | 32920 ft | 525 kts | 117° |
| 2026-04-21 22:03 | 26.58728 | 35.42708 | 32920 ft | 526 kts | 117° |
| 2026-04-21 22:03 | 26.55959 | 35.50211 | 32923 ft | 526 kts | 117° |
| 2026-04-21 22:04 | 26.53075 | 35.57723 | 32915 ft | 526 kts | 118° |
| 2026-04-21 22:04 | 26.50201 | 35.65236 | 32914 ft | 526 kts | 118° |
| 2026-04-21 22:05 | 26.47347 | 35.72703 | 32905 ft | 526 kts | 118° |
| 2026-04-21 22:05 | 26.44468 | 35.80208 | 32901 ft | 526 kts | 118° |
| 2026-04-21 22:06 | 26.41587 | 35.87718 | 32896 ft | 526 kts | 118° |
| 2026-04-21 22:06 | 26.38693 | 35.95228 | 32894 ft | 528 kts | 118° |
| 2026-04-21 22:07 | 26.35796 | 36.02760 | 32886 ft | 528 kts | 118° |
| 2026-04-21 22:07 | 26.32912 | 36.10222 | 32882 ft | 528 kts | 118° |
| 2026-04-21 22:08 | 26.30003 | 36.17739 | 32880 ft | 528 kts | 118° |
| 2026-04-21 22:08 | 26.27090 | 36.25249 | 32880 ft | 528 kts | 118° |
| 2026-04-21 22:09 | 26.24176 | 36.32755 | 32879 ft | 528 kts | 118° |
| 2026-04-21 22:09 | 26.21274 | 36.40204 | 32878 ft | 528 kts | 118° |
| 2026-04-21 22:10 | 26.18350 | 36.47686 | 32879 ft | 526 kts | 120° |
| 2026-04-21 22:10 | 26.14956 | 36.54845 | 32878 ft | 522 kts | 125° |
| 2026-04-21 22:11 | 26.11443 | 36.61912 | 32878 ft | 521 kts | 124° |
| 2026-04-21 22:11 | 26.07978 | 36.68936 | 32879 ft | 521 kts | 124° |
| 2026-04-21 22:12 | 26.04486 | 36.75997 | 32879 ft | 521 kts | 124° |
| 2026-04-21 22:12 | 26.01004 | 36.83067 | 32879 ft | 521 kts | 124° |
| 2026-04-21 22:13 | 25.97509 | 36.90135 | 32880 ft | 522 kts | 124° |
| 2026-04-21 22:13 | 25.94012 | 36.97192 | 32880 ft | 522 kts | 124° |
| 2026-04-21 22:14 | 25.90525 | 37.04202 | 32877 ft | 522 kts | 125° |
| 2026-04-21 22:14 | 25.87002 | 37.11245 | 32879 ft | 522 kts | 124° |
| 2026-04-21 22:15 | 25.83485 | 37.18300 | 32880 ft | 522 kts | 124° |
| 2026-04-21 22:15 | 25.79972 | 37.25349 | 32880 ft | 521 kts | 124° |
| 2026-04-21 22:16 | 25.76493 | 37.32337 | 32882 ft | 521 kts | 125° |
| 2026-04-21 22:16 | 25.72993 | 37.39366 | 32879 ft | 521 kts | 124° |
| 2026-04-21 22:17 | 25.69495 | 37.46393 | 32879 ft | 520 kts | 125° |
| 2026-04-21 22:17 | 25.65978 | 37.53406 | 32881 ft | 520 kts | 125° |
| 2026-04-21 22:18 | 25.62489 | 37.60362 | 32856 ft | 518 kts | 124° |
| 2026-04-21 22:18 | 25.58998 | 37.67351 | 32884 ft | 519 kts | 125° |
| 2026-04-21 22:19 | 25.55491 | 37.74339 | 32881 ft | 520 kts | 124° |
| 2026-04-21 22:19 | 25.51982 | 37.81347 | 32881 ft | 520 kts | 125° |
| 2026-04-21 22:20 | 25.48493 | 37.88289 | 32880 ft | 520 kts | 125° |
| 2026-04-21 22:20 | 25.44973 | 37.95274 | 32871 ft | 520 kts | 125° |
| 2026-04-21 22:21 | 25.41439 | 38.02248 | 32870 ft | 519 kts | 125° |
| 2026-04-21 22:21 | 25.37928 | 38.09202 | 32865 ft | 518 kts | 125° |
| 2026-04-21 22:22 | 25.34431 | 38.16125 | 32870 ft | 519 kts | 125° |
| 2026-04-21 22:22 | 25.30897 | 38.23087 | 32854 ft | 519 kts | 125° |
| 2026-04-21 22:23 | 25.27355 | 38.30043 | 32862 ft | 520 kts | 125° |
| 2026-04-21 22:23 | 25.23808 | 38.37012 | 32870 ft | 521 kts | 125° |
| 2026-04-21 22:24 | 25.20293 | 38.43939 | 32864 ft | 521 kts | 125° |
| 2026-04-21 22:24 | 25.16732 | 38.50899 | 32873 ft | 521 kts | 125° |
| 2026-04-21 22:25 | 25.13167 | 38.57863 | 32872 ft | 521 kts | 125° |
| 2026-04-21 22:25 | 25.09603 | 38.64823 | 32870 ft | 521 kts | 125° |
| 2026-04-21 22:26 | 25.06058 | 38.71734 | 32876 ft | 521 kts | 125° |
| 2026-04-21 22:26 | 25.02490 | 38.78681 | 32868 ft | 520 kts | 126° |
| 2026-04-21 22:27 | 24.98917 | 38.85613 | 32879 ft | 520 kts | 126° |
| 2026-04-21 22:27 | 24.95345 | 38.92546 | 32881 ft | 520 kts | 126° |
| 2026-04-21 22:28 | 24.91784 | 38.99423 | 32886 ft | 520 kts | 126° |
| 2026-04-21 22:28 | 24.88202 | 39.06342 | 32890 ft | 521 kts | 126° |
| 2026-04-21 22:29 | 24.84615 | 39.13261 | 32906 ft | 520 kts | 126° |
| 2026-04-21 22:29 | 24.81024 | 39.20173 | 32905 ft | 520 kts | 126° |
| 2026-04-21 22:30 | 24.77438 | 39.27087 | 32912 ft | 520 kts | 126° |
| 2026-04-21 22:30 | 24.73873 | 39.33936 | 32913 ft | 520 kts | 126° |
| 2026-04-21 22:31 | 24.70279 | 39.40834 | 32920 ft | 520 kts | 126° |
| 2026-04-21 22:31 | 24.66674 | 39.47733 | 32928 ft | 520 kts | 126° |
| 2026-04-21 22:32 | 24.63061 | 39.54619 | 32934 ft | 520 kts | 126° |
| 2026-04-21 22:32 | 24.59487 | 39.61461 | 32926 ft | 519 kts | 126° |
| 2026-04-21 22:33 | 24.55947 | 39.68370 | 32919 ft | 522 kts | 121° |
| 2026-04-21 22:33 | 24.54682 | 39.72141 | 32921 ft | 532 kts | 108° |
| 2026-04-21 22:33 | 24.54077 | 39.76165 | 32932 ft | 536 kts | 99° |
| 2026-04-21 22:34 | 24.53376 | 39.84323 | 32932 ft | 537 kts | 98° |
| 2026-04-21 22:34 | 24.52638 | 39.92428 | 32928 ft | 536 kts | 99° |
| 2026-04-21 22:35 | 24.51840 | 40.00573 | 32930 ft | 536 kts | 99° |
| 2026-04-21 22:35 | 24.51040 | 40.08718 | 32929 ft | 537 kts | 99° |
| 2026-04-21 22:36 | 24.49835 | 40.20937 | 32929 ft | 537 kts | 99° |
| 2026-04-21 22:36 | 24.49037 | 40.29024 | 32930 ft | 537 kts | 99° |
| 2026-04-21 22:37 | 24.48229 | 40.37168 | 32930 ft | 537 kts | 99° |
| 2026-04-21 22:37 | 24.47415 | 40.45308 | 32930 ft | 537 kts | 99° |
| 2026-04-21 22:38 | 24.46596 | 40.53452 | 32929 ft | 537 kts | 99° |
| 2026-04-21 22:38 | 24.45784 | 40.61536 | 32931 ft | 536 kts | 99° |
| 2026-04-21 22:39 | 24.44951 | 40.69672 | 32930 ft | 537 kts | 99° |
| 2026-04-21 22:39 | 24.44119 | 40.77820 | 32930 ft | 538 kts | 99° |
| 2026-04-21 22:40 | 24.43298 | 40.85981 | 32930 ft | 538 kts | 99° |
| 2026-04-21 22:40 | 24.42462 | 40.94080 | 32931 ft | 538 kts | 99° |
| 2026-04-21 22:41 | 24.41625 | 41.02241 | 32930 ft | 539 kts | 99° |
| 2026-04-21 22:41 | 24.40769 | 41.10411 | 32941 ft | 539 kts | 99° |
| 2026-04-21 22:42 | 24.39914 | 41.18577 | 32958 ft | 539 kts | 99° |
| 2026-04-21 22:42 | 24.39047 | 41.26747 | 32961 ft | 540 kts | 99° |
| 2026-04-21 22:43 | 24.38166 | 41.34926 | 32960 ft | 540 kts | 99° |
| 2026-04-21 22:43 | 24.37306 | 41.43054 | 32960 ft | 540 kts | 99° |
| 2026-04-21 22:44 | 24.36444 | 41.51233 | 32963 ft | 540 kts | 99° |
| 2026-04-21 22:44 | 24.35568 | 41.59414 | 32969 ft | 540 kts | 99° |
| 2026-04-21 22:45 | 24.34681 | 41.67602 | 32969 ft | 540 kts | 99° |
| 2026-04-21 22:45 | 24.33802 | 41.75729 | 32961 ft | 541 kts | 99° |
| 2026-04-21 22:46 | 24.32701 | 41.83868 | 32955 ft | 537 kts | 108° |
| 2026-04-21 22:46 | 24.30632 | 41.91710 | 32959 ft | 535 kts | 110° |
| 2026-04-21 22:47 | 24.28569 | 41.99501 | 32956 ft | 535 kts | 110° |
| 2026-04-21 22:47 | 24.26502 | 42.07339 | 32960 ft | 536 kts | 110° |
| 2026-04-21 22:48 | 24.24447 | 42.15186 | 32962 ft | 535 kts | 110° |
| 2026-04-21 22:48 | 24.22369 | 42.23014 | 32958 ft | 535 kts | 110° |
| 2026-04-21 22:49 | 24.20296 | 42.30845 | 32955 ft | 535 kts | 110° |
| 2026-04-21 22:49 | 24.18237 | 42.38628 | 32951 ft | 535 kts | 110° |
| 2026-04-21 22:50 | 24.16155 | 42.46451 | 32948 ft | 535 kts | 110° |
| 2026-04-21 22:50 | 24.14056 | 42.54263 | 32952 ft | 534 kts | 110° |
| 2026-04-21 22:51 | 24.11968 | 42.62059 | 32952 ft | 534 kts | 110° |
| 2026-04-21 22:51 | 24.09905 | 42.69806 | 32943 ft | 534 kts | 110° |
| 2026-04-21 22:52 | 24.07799 | 42.77589 | 32939 ft | 533 kts | 110° |
| 2026-04-21 22:52 | 24.05703 | 42.85358 | 32940 ft | 532 kts | 110° |
| 2026-04-21 22:53 | 24.03616 | 42.93129 | 32940 ft | 532 kts | 110° |
| 2026-04-21 22:53 | 24.01522 | 43.00886 | 32942 ft | 531 kts | 110° |
| 2026-04-21 22:54 | 23.99424 | 43.08571 | 32942 ft | 531 kts | 110° |
| 2026-04-21 22:54 | 23.97319 | 43.16318 | 32940 ft | 532 kts | 110° |
| 2026-04-21 22:55 | 23.95212 | 43.24065 | 32940 ft | 531 kts | 110° |
| 2026-04-21 22:55 | 23.93097 | 43.31802 | 32942 ft | 531 kts | 110° |
| 2026-04-21 22:56 | 23.91002 | 43.39485 | 32939 ft | 531 kts | 110° |
| 2026-04-21 22:56 | 23.88878 | 43.47199 | 32940 ft | 530 kts | 110° |
| 2026-04-21 22:57 | 23.86742 | 43.54911 | 32942 ft | 530 kts | 110° |
| 2026-04-21 22:57 | 23.84627 | 43.62636 | 32941 ft | 530 kts | 110° |
| 2026-04-21 22:58 | 23.82511 | 43.70294 | 32941 ft | 529 kts | 110° |
| 2026-04-21 22:58 | 23.80391 | 43.77982 | 32939 ft | 529 kts | 110° |
| 2026-04-21 22:59 | 23.78253 | 43.85672 | 32935 ft | 529 kts | 110° |
| 2026-04-21 22:59 | 23.76970 | 43.93606 | 32934 ft | 534 kts | 96° |
| 2026-04-21 23:00 | 23.76406 | 44.01685 | 32931 ft | 534 kts | 96° |
| 2026-04-21 23:00 | 23.75834 | 44.09709 | 32931 ft | 534 kts | 96° |
| 2026-04-21 23:01 | 23.75235 | 44.17795 | 32930 ft | 534 kts | 96° |
| 2026-04-21 23:01 | 23.74599 | 44.25862 | 32931 ft | 534 kts | 96° |
| 2026-04-21 23:02 | 23.73989 | 44.33940 | 32930 ft | 534 kts | 96° |
| 2026-04-21 23:02 | 23.73371 | 44.41964 | 32931 ft | 534 kts | 96° |
| 2026-04-21 23:03 | 23.72752 | 44.50042 | 32929 ft | 534 kts | 96° |
| 2026-04-21 23:03 | 23.72122 | 44.58123 | 32932 ft | 534 kts | 96° |
| 2026-04-21 23:04 | 23.71499 | 44.66141 | 32929 ft | 534 kts | 96° |
| 2026-04-21 23:04 | 23.70868 | 44.74209 | 32930 ft | 534 kts | 96° |
| 2026-04-21 23:05 | 23.70235 | 44.82290 | 32931 ft | 535 kts | 96° |
| 2026-04-21 23:05 | 23.69598 | 44.90376 | 32930 ft | 535 kts | 96° |
| 2026-04-21 23:06 | 23.68952 | 44.98396 | 32931 ft | 535 kts | 96° |
| 2026-04-21 23:06 | 23.68296 | 45.06489 | 32930 ft | 535 kts | 96° |
| 2026-04-21 23:07 | 23.67626 | 45.14574 | 32929 ft | 535 kts | 96° |
| 2026-04-21 23:07 | 23.66956 | 45.22653 | 32930 ft | 535 kts | 96° |
| 2026-04-21 23:08 | 23.66287 | 45.30739 | 32930 ft | 535 kts | 96° |
| 2026-04-21 23:08 | 23.65648 | 45.38766 | 32929 ft | 535 kts | 96° |
| 2026-04-21 23:09 | 23.64947 | 45.46844 | 32933 ft | 535 kts | 96° |
| 2026-04-21 23:09 | 23.64282 | 45.54924 | 32932 ft | 535 kts | 96° |
| 2026-04-21 23:10 | 23.63616 | 45.62942 | 32930 ft | 534 kts | 96° |
| 2026-04-21 23:10 | 23.62934 | 45.71003 | 32919 ft | 534 kts | 96° |
| 2026-04-21 23:11 | 23.62238 | 45.79065 | 32912 ft | 534 kts | 96° |
| 2026-04-21 23:11 | 23.61544 | 45.87121 | 32909 ft | 534 kts | 96° |
| 2026-04-21 23:12 | 23.60844 | 45.95179 | 32912 ft | 534 kts | 96° |
| 2026-04-21 23:12 | 23.60146 | 46.03182 | 32908 ft | 534 kts | 96° |
| 2026-04-21 23:13 | 23.59440 | 46.11242 | 32915 ft | 534 kts | 96° |
| 2026-04-21 23:13 | 23.58734 | 46.19298 | 32910 ft | 534 kts | 96° |
| 2026-04-21 23:14 | 23.58006 | 46.27358 | 32903 ft | 534 kts | 96° |
| 2026-04-21 23:14 | 23.57279 | 46.35355 | 32889 ft | 534 kts | 96° |
| 2026-04-21 23:15 | 23.56551 | 46.43411 | 32890 ft | 534 kts | 96° |
| 2026-04-21 23:15 | 23.55825 | 46.51452 | 32874 ft | 533 kts | 96° |
| 2026-04-21 23:16 | 23.55124 | 46.59445 | 32881 ft | 533 kts | 96° |
| 2026-04-21 23:16 | 23.54399 | 46.67485 | 32883 ft | 533 kts | 96° |
| 2026-04-21 23:17 | 23.53645 | 46.75514 | 32880 ft | 532 kts | 96° |
| 2026-04-21 23:17 | 23.52898 | 46.83532 | 32880 ft | 532 kts | 96° |
| 2026-04-21 23:18 | 23.52143 | 46.91546 | 32882 ft | 532 kts | 96° |
| 2026-04-21 23:18 | 23.51396 | 46.99490 | 32881 ft | 531 kts | 96° |
| 2026-04-21 23:19 | 23.50658 | 47.07484 | 32879 ft | 531 kts | 96° |
| 2026-04-21 23:19 | 23.49915 | 47.15476 | 32881 ft | 529 kts | 96° |
| 2026-04-21 23:20 | 23.49145 | 47.23454 | 32882 ft | 530 kts | 96° |
| 2026-04-21 23:20 | 23.48386 | 47.31366 | 32881 ft | 529 kts | 96° |
| 2026-04-21 23:21 | 23.47627 | 47.39334 | 32880 ft | 528 kts | 96° |
| 2026-04-21 23:21 | 23.46346 | 47.47185 | 32874 ft | 526 kts | 111° |
| 2026-04-21 23:22 | 23.44773 | 47.50754 | 32876 ft | 521 kts | 126° |
| 2026-04-21 23:22 | 23.42559 | 47.53825 | 32880 ft | 512 kts | 140° |
| 2026-04-21 23:22 | 23.39856 | 47.56282 | 32884 ft | 502 kts | 152° |
| 2026-04-21 23:22 | 23.36957 | 47.58278 | 32887 ft | 499 kts | 155° |
| 2026-04-21 23:23 | 23.31024 | 47.62197 | 32875 ft | 499 kts | 155° |
| 2026-04-21 23:23 | 23.25114 | 47.66176 | 32871 ft | 500 kts | 154° |
| 2026-04-21 23:24 | 23.20205 | 47.69498 | 32871 ft | 500 kts | 154° |
| 2026-04-21 23:24 | 23.13908 | 47.75127 | 32866 ft | 518 kts | 132° |
| 2026-04-21 23:25 | 23.11998 | 47.78470 | 32867 ft | 525 kts | 117° |
| 2026-04-21 23:25 | 23.10793 | 47.82225 | 32870 ft | 529 kts | 103° |
| 2026-04-21 23:25 | 23.10357 | 47.86180 | 32871 ft | 529 kts | 89° |
| 2026-04-21 23:25 | 23.10643 | 47.90147 | 32877 ft | 527 kts | 80° |
| 2026-04-21 23:26 | 23.11708 | 47.98022 | 32874 ft | 527 kts | 79° |
| 2026-04-21 23:26 | 23.12711 | 48.05835 | 32870 ft | 524 kts | 80° |
| 2026-04-21 23:27 | 23.13680 | 48.13677 | 32869 ft | 524 kts | 80° |
| 2026-04-21 23:27 | 23.14650 | 48.21516 | 32871 ft | 524 kts | 80° |
| 2026-04-21 23:28 | 23.15452 | 48.28036 | 32871 ft | 524 kts | 80° |
| 2026-04-21 23:28 | 23.16562 | 48.37153 | 32869 ft | 524 kts | 80° |
| 2026-04-21 23:29 | 23.17514 | 48.44997 | 32871 ft | 523 kts | 80° |
| 2026-04-21 23:29 | 23.18294 | 48.51508 | 32861 ft | 523 kts | 80° |
| 2026-04-21 23:30 | 23.19399 | 48.60659 | 32862 ft | 523 kts | 80° |
| 2026-04-21 23:30 | 23.20274 | 48.67967 | 32861 ft | 523 kts | 80° |
| 2026-04-21 23:31 | 23.21209 | 48.75747 | 32862 ft | 523 kts | 81° |
| 2026-04-21 23:31 | 23.22134 | 48.83582 | 32862 ft | 522 kts | 81° |
| 2026-04-21 23:32 | 23.23054 | 48.91409 | 32861 ft | 522 kts | 81° |
| 2026-04-21 23:32 | 23.23982 | 48.99243 | 32861 ft | 522 kts | 81° |
| 2026-04-21 23:33 | 23.24894 | 49.07007 | 32858 ft | 521 kts | 81° |
| 2026-04-21 23:33 | 23.25806 | 49.14824 | 32854 ft | 521 kts | 81° |
| 2026-04-21 23:34 | 23.26714 | 49.22641 | 32849 ft | 521 kts | 81° |
| 2026-04-21 23:34 | 23.27624 | 49.30441 | 32850 ft | 520 kts | 81° |
| 2026-04-21 23:35 | 23.28517 | 49.38191 | 32851 ft | 520 kts | 81° |
| 2026-04-21 23:35 | 23.29410 | 49.45996 | 32853 ft | 520 kts | 81° |
| 2026-04-21 23:36 | 23.30295 | 49.53788 | 32828 ft | 519 kts | 81° |
| 2026-04-21 23:36 | 23.31187 | 49.61577 | 32812 ft | 518 kts | 81° |
| 2026-04-21 23:37 | 23.32071 | 49.69354 | 32812 ft | 518 kts | 81° |
| 2026-04-21 23:37 | 23.32944 | 49.77079 | 32811 ft | 518 kts | 81° |
| 2026-04-21 23:38 | 23.33818 | 49.84852 | 32810 ft | 517 kts | 81° |
| 2026-04-21 23:38 | 23.34686 | 49.92613 | 32810 ft | 517 kts | 81° |
| 2026-04-21 23:39 | 23.35547 | 50.00382 | 32810 ft | 517 kts | 81° |
| 2026-04-21 23:39 | 23.36393 | 50.08082 | 32809 ft | 515 kts | 81° |
| 2026-04-21 23:40 | 23.37251 | 50.15816 | 32811 ft | 515 kts | 81° |
| 2026-04-21 23:40 | 23.38093 | 50.23560 | 32804 ft | 515 kts | 81° |
| 2026-04-21 23:41 | 23.38947 | 50.31294 | 32801 ft | 515 kts | 81° |
| 2026-04-21 23:41 | 23.39781 | 50.38981 | 32800 ft | 515 kts | 81° |
| 2026-04-21 23:42 | 23.40627 | 50.46724 | 32801 ft | 515 kts | 82° |
| 2026-04-21 23:42 | 23.41453 | 50.54472 | 32801 ft | 515 kts | 82° |
| 2026-04-21 23:43 | 23.42280 | 50.62206 | 32801 ft | 514 kts | 82° |
| 2026-04-21 23:43 | 23.43098 | 50.69891 | 32800 ft | 514 kts | 82° |
| 2026-04-21 23:44 | 23.43918 | 50.77623 | 32799 ft | 514 kts | 82° |
| 2026-04-21 23:44 | 23.44740 | 50.85357 | 32801 ft | 514 kts | 82° |
| 2026-04-21 23:45 | 23.45955 | 50.96960 | 32800 ft | 514 kts | 82° |
| 2026-04-21 23:46 | 23.46760 | 51.04627 | 32800 ft | 513 kts | 82° |
| 2026-04-21 23:46 | 23.47564 | 51.12342 | 32800 ft | 512 kts | 82° |
| 2026-04-21 23:47 | 23.48359 | 51.20059 | 32800 ft | 512 kts | 82° |
| 2026-04-21 23:47 | 23.49161 | 51.27756 | 32800 ft | 511 kts | 82° |
| 2026-04-21 23:48 | 23.49938 | 51.35392 | 32794 ft | 511 kts | 82° |
| 2026-04-21 23:48 | 23.50722 | 51.43085 | 32781 ft | 510 kts | 82° |
| 2026-04-21 23:49 | 23.51501 | 51.50759 | 32777 ft | 510 kts | 82° |
| 2026-04-21 23:49 | 23.52270 | 51.58427 | 32770 ft | 508 kts | 82° |
| 2026-04-21 23:50 | 23.53031 | 51.66037 | 32786 ft | 508 kts | 82° |
| 2026-04-21 23:50 | 23.53801 | 51.73693 | 32799 ft | 507 kts | 82° |
| 2026-04-21 23:51 | 23.54557 | 51.81338 | 32807 ft | 508 kts | 82° |
| 2026-04-21 23:51 | 23.55314 | 51.88986 | 32811 ft | 508 kts | 82° |
| 2026-04-21 23:52 | 23.56063 | 51.96578 | 32785 ft | 507 kts | 83° |
| 2026-04-21 23:52 | 23.56811 | 52.04225 | 32781 ft | 506 kts | 82° |
| 2026-04-21 23:53 | 23.57559 | 52.11845 | 32781 ft | 506 kts | 82° |
| 2026-04-21 23:53 | 23.58306 | 52.19468 | 32781 ft | 506 kts | 83° |
| 2026-04-21 23:54 | 23.59033 | 52.27049 | 32781 ft | 506 kts | 82° |
| 2026-04-21 23:54 | 23.59758 | 52.34671 | 32771 ft | 506 kts | 82° |
| 2026-04-21 23:55 | 23.60478 | 52.42301 | 32770 ft | 506 kts | 83° |
| 2026-04-21 23:55 | 23.61202 | 52.49929 | 32771 ft | 506 kts | 82° |
| 2026-04-21 23:56 | 23.61926 | 52.57492 | 32770 ft | 505 kts | 82° |
| 2026-04-21 23:56 | 23.62654 | 52.65102 | 32770 ft | 505 kts | 82° |
| 2026-04-21 23:57 | 23.63367 | 52.72718 | 32770 ft | 505 kts | 83° |
| 2026-04-21 23:57 | 23.64077 | 52.80330 | 32770 ft | 505 kts | 82° |
| 2026-04-21 23:58 | 23.64768 | 52.87892 | 32769 ft | 505 kts | 83° |
| 2026-04-21 23:58 | 23.65461 | 52.95507 | 32769 ft | 504 kts | 83° |
| 2026-04-21 23:59 | 23.66162 | 53.03109 | 32765 ft | 503 kts | 83° |
| 2026-04-21 23:59 | 23.66858 | 53.10705 | 32760 ft | 503 kts | 83° |
| 2026-04-22 00:00 | 23.67547 | 53.18243 | 32759 ft | 502 kts | 83° |
| 2026-04-22 00:00 | 23.68231 | 53.25824 | 32760 ft | 502 kts | 83° |
| 2026-04-22 00:01 | 23.68910 | 53.33398 | 32760 ft | 501 kts | 83° |
| 2026-04-22 00:01 | 23.69584 | 53.40957 | 32761 ft | 500 kts | 83° |
| 2026-04-22 00:02 | 23.70280 | 53.48502 | 32759 ft | 499 kts | 80° |
| 2026-04-22 00:02 | 23.71032 | 53.52126 | 32756 ft | 495 kts | 69° |
| 2026-04-22 00:02 | 23.72393 | 53.55562 | 32761 ft | 491 kts | 59° |
| 2026-04-22 00:03 | 23.75818 | 53.61975 | 32764 ft | 488 kts | 56° |
| 2026-04-22 00:03 | 23.79278 | 53.68363 | 32760 ft | 489 kts | 56° |
| 2026-04-22 00:04 | 23.82694 | 53.74780 | 32760 ft | 489 kts | 57° |
| 2026-04-22 00:04 | 23.86068 | 53.81167 | 32759 ft | 489 kts | 58° |
| 2026-04-22 00:05 | 23.89010 | 53.87877 | 32760 ft | 489 kts | 60° |
| 2026-04-22 00:05 | 23.92265 | 53.94387 | 32760 ft | 488 kts | 57° |
| 2026-04-22 00:06 | 23.95642 | 54.00762 | 32759 ft | 488 kts | 57° |
| 2026-04-22 00:06 | 23.99040 | 54.07183 | 32761 ft | 488 kts | 57° |
| 2026-04-22 00:07 | 24.02385 | 54.13639 | 32761 ft | 488 kts | 57° |
| 2026-04-22 00:07 | 24.05717 | 54.20105 | 32760 ft | 488 kts | 57° |
| 2026-04-22 00:08 | 24.09029 | 54.26527 | 32760 ft | 487 kts | 58° |
| 2026-04-22 00:08 | 24.12360 | 54.32993 | 32760 ft | 488 kts | 58° |
| 2026-04-22 00:09 | 24.15688 | 54.39464 | 32759 ft | 488 kts | 58° |
| 2026-04-22 00:09 | 24.19013 | 54.45939 | 32761 ft | 487 kts | 58° |
| 2026-04-22 00:10 | 24.22456 | 54.52312 | 32756 ft | 484 kts | 51° |
| 2026-04-22 00:10 | 24.24640 | 54.55021 | 32755 ft | 479 kts | 39° |
| 2026-04-22 00:10 | 24.27270 | 54.57225 | 32758 ft | 473 kts | 27° |
| 2026-04-22 00:10 | 24.30203 | 54.58804 | 32761 ft | 467 kts | 16° |
| 2026-04-22 00:11 | 24.33319 | 54.59727 | 32764 ft | 463 kts | 5° |
| 2026-04-22 00:11 | 24.36514 | 54.59991 | 32769 ft | 459 kts | 354° |
| 2026-04-22 00:11 | 24.39673 | 54.59650 | 32775 ft | 456 kts | 347° |
| 2026-04-22 00:12 | 24.46046 | 54.59363 | 32770 ft | 461 kts | 357° |
| 2026-04-22 00:12 | 24.52421 | 54.59995 | 32770 ft | 466 kts | 5° |
| 2026-04-22 00:13 | 24.58827 | 54.61076 | 32770 ft | 465 kts | 3° |
| 2026-04-22 00:13 | 24.65254 | 54.61887 | 32782 ft | 464 kts | 2° |
| 2026-04-22 00:14 | 24.71671 | 54.62635 | 32802 ft | 464 kts | 2° |
| 2026-04-22 00:14 | 24.78054 | 54.63382 | 32809 ft | 464 kts | 2° |
| 2026-04-22 00:15 | 24.84483 | 54.64138 | 32810 ft | 464 kts | 2° |
| 2026-04-22 00:15 | 24.90903 | 54.64894 | 32810 ft | 464 kts | 2° |
| 2026-04-22 00:16 | 24.97327 | 54.65638 | 32807 ft | 462 kts | 360° |
| 2026-04-22 00:16 | 25.00490 | 54.65537 | 32736 ft | 446 kts | 348° |
| 2026-04-22 00:16 | 25.03381 | 54.64767 | 32560 ft | 423 kts | 335° |
| 2026-04-22 00:16 | 25.05930 | 54.63339 | 32331 ft | 402 kts | 321° |
| 2026-04-22 00:17 | 25.08004 | 54.61369 | 31859 ft | 390 kts | 310° |
| 2026-04-22 00:17 | 25.09817 | 54.59152 | 30970 ft | 392 kts | 307° |
| 2026-04-22 00:17 | 25.11518 | 54.56781 | 30204 ft | 394 kts | 303° |
| 2026-04-22 00:17 | 25.13115 | 54.54330 | 29520 ft | 393 kts | 302° |
| 2026-04-22 00:18 | 25.14710 | 54.51874 | 28831 ft | 394 kts | 302° |
| 2026-04-22 00:18 | 25.16309 | 54.49412 | 28102 ft | 395 kts | 302° |
| 2026-04-22 00:18 | 25.17753 | 54.46816 | 27076 ft | 398 kts | 292° |
| 2026-04-22 00:18 | 25.18560 | 54.43942 | 26052 ft | 400 kts | 278° |
| 2026-04-22 00:19 | 25.18689 | 54.40875 | 24996 ft | 403 kts | 265° |
| 2026-04-22 00:19 | 25.18130 | 54.37833 | 23885 ft | 408 kts | 252° |
| 2026-04-22 00:19 | 25.16923 | 54.34984 | 22714 ft | 414 kts | 240° |
| 2026-04-22 00:19 | 25.15134 | 54.32463 | 21473 ft | 423 kts | 228° |
| 2026-04-22 00:20 | 25.12836 | 54.30380 | 20154 ft | 433 kts | 216° |
| 2026-04-22 00:20 | 25.10138 | 54.28850 | 18913 ft | 441 kts | 205° |
| 2026-04-22 00:20 | 25.07234 | 54.27784 | 17869 ft | 441 kts | 197° |
| 2026-04-22 00:20 | 25.04201 | 54.27280 | 16901 ft | 440 kts | 187° |
| 2026-04-22 00:21 | 25.01195 | 54.27453 | 16184 ft | 439 kts | 173° |
| 2026-04-22 00:21 | 24.98272 | 54.28452 | 15824 ft | 443 kts | 158° |
| 2026-04-22 00:21 | 24.95659 | 54.30260 | 15533 ft | 446 kts | 142° |
| 2026-04-22 00:21 | 24.93543 | 54.32752 | 15276 ft | 448 kts | 127° |
| 2026-04-22 00:22 | 24.92061 | 54.35773 | 15020 ft | 449 kts | 112° |
| 2026-04-22 00:22 | 24.91324 | 54.39100 | 14768 ft | 448 kts | 97° |
| 2026-04-22 00:22 | 24.91376 | 54.42520 | 14520 ft | 447 kts | 82° |
| 2026-04-22 00:22 | 24.92202 | 54.45797 | 14270 ft | 444 kts | 66° |
| 2026-04-22 00:23 | 24.93672 | 54.48773 | 14029 ft | 442 kts | 57° |
| 2026-04-22 00:23 | 24.95280 | 54.51593 | 13786 ft | 440 kts | 57° |
| 2026-04-22 00:23 | 24.96906 | 54.54450 | 13537 ft | 439 kts | 57° |
| 2026-04-22 00:23 | 24.98513 | 54.57306 | 13283 ft | 437 kts | 57° |
| 2026-04-22 00:24 | 25.00114 | 54.60145 | 13032 ft | 435 kts | 57° |
| 2026-04-22 00:24 | 25.01699 | 54.62981 | 12783 ft | 434 kts | 57° |
| 2026-04-22 00:24 | 25.03275 | 54.65819 | 12540 ft | 434 kts | 57° |
| 2026-04-22 00:24 | 25.04844 | 54.68645 | 12285 ft | 431 kts | 57° |
| 2026-04-22 00:25 | 25.06405 | 54.71464 | 12072 ft | 427 kts | 58° |
| 2026-04-22 00:25 | 25.07893 | 54.74152 | 11910 ft | 405 kts | 57° |
| 2026-04-22 00:25 | 25.09349 | 54.76722 | 11754 ft | 386 kts | 56° |
| 2026-04-22 00:25 | 25.10985 | 54.78958 | 11603 ft | 365 kts | 42° |
| 2026-04-22 00:26 | 25.12914 | 54.80666 | 11463 ft | 346 kts | 34° |
| 2026-04-22 00:26 | 25.14834 | 54.82164 | 11323 ft | 331 kts | 33° |
| 2026-04-22 00:26 | 25.16615 | 54.83690 | 11180 ft | 317 kts | 37° |
| 2026-04-22 00:26 | 25.18295 | 54.85236 | 11042 ft | 315 kts | 38° |
| 2026-04-22 00:27 | 25.19968 | 54.86791 | 10913 ft | 314 kts | 38° |
| 2026-04-22 00:27 | 25.21616 | 54.88325 | 10790 ft | 314 kts | 38° |
| 2026-04-22 00:27 | 25.23280 | 54.89875 | 10651 ft | 313 kts | 38° |
| 2026-04-22 00:27 | 25.24942 | 54.91423 | 10540 ft | 312 kts | 38° |
| 2026-04-22 00:28 | 25.26598 | 54.92966 | 10413 ft | 312 kts | 38° |
| 2026-04-22 00:28 | 25.28213 | 54.94559 | 10281 ft | 312 kts | 46° |
| 2026-04-22 00:28 | 25.29409 | 54.96551 | 10162 ft | 313 kts | 63° |
| 2026-04-22 00:28 | 25.30337 | 54.98725 | 10039 ft | 312 kts | 65° |
| 2026-04-22 00:29 | 25.31239 | 55.00899 | 9914 ft | 311 kts | 64° |
| 2026-04-22 00:29 | 25.32133 | 55.03036 | 9791 ft | 311 kts | 64° |
| 2026-04-22 00:29 | 25.33044 | 55.05199 | 9666 ft | 309 kts | 64° |
| 2026-04-22 00:29 | 25.33956 | 55.07349 | 9542 ft | 308 kts | 64° |
| 2026-04-22 00:30 | 25.34870 | 55.09489 | 9414 ft | 308 kts | 64° |
| 2026-04-22 00:30 | 25.35739 | 55.11650 | 9282 ft | 306 kts | 71° |
| 2026-04-22 00:30 | 25.36095 | 55.13958 | 9145 ft | 306 kts | 89° |
| 2026-04-22 00:30 | 25.36060 | 55.16306 | 8950 ft | 304 kts | 92° |
| 2026-04-22 00:31 | 25.35978 | 55.18634 | 8628 ft | 302 kts | 92° |
| 2026-04-22 00:31 | 25.35906 | 55.20950 | 8261 ft | 301 kts | 92° |
| 2026-04-22 00:31 | 25.35848 | 55.23223 | 7998 ft | 298 kts | 91° |
| 2026-04-22 00:31 | 25.35795 | 55.25512 | 7949 ft | 298 kts | 91° |
| 2026-04-22 00:32 | 25.35740 | 55.27802 | 7955 ft | 298 kts | 91° |
| 2026-04-22 00:32 | 25.35690 | 55.30090 | 7965 ft | 297 kts | 91° |
| 2026-04-22 00:32 | 25.35581 | 55.32371 | 7966 ft | 297 kts | 99° |
| 2026-04-22 00:32 | 25.34804 | 55.34459 | 7976 ft | 296 kts | 122° |
| 2026-04-22 00:33 | 25.33683 | 55.36370 | 7985 ft | 296 kts | 123° |
| 2026-04-22 00:33 | 25.32577 | 55.38256 | 7985 ft | 296 kts | 123° |
| 2026-04-22 00:33 | 25.31472 | 55.40174 | 7992 ft | 296 kts | 123° |
| 2026-04-22 00:33 | 25.30378 | 55.42108 | 7984 ft | 297 kts | 122° |
| 2026-04-22 00:34 | 25.29289 | 55.44044 | 7987 ft | 296 kts | 122° |
| 2026-04-22 00:34 | 25.28207 | 55.45982 | 7984 ft | 297 kts | 122° |
| 2026-04-22 00:34 | 25.27123 | 55.47923 | 7980 ft | 297 kts | 122° |
| 2026-04-22 00:34 | 25.26041 | 55.49868 | 7973 ft | 296 kts | 122° |
| 2026-04-22 00:35 | 25.24976 | 55.51793 | 7514 ft | 296 kts | 122° |
| 2026-04-22 00:35 | 25.23896 | 55.53739 | 7025 ft | 296 kts | 122° |
| 2026-04-22 00:35 | 25.22842 | 55.55625 | 6779 ft | 288 kts | 122° |
| 2026-04-22 00:35 | 25.21816 | 55.57471 | 6608 ft | 275 kts | 122° |
| 2026-04-22 00:36 | 25.20836 | 55.59233 | 6456 ft | 263 kts | 122° |
| 2026-04-22 00:36 | 25.19899 | 55.60916 | 6318 ft | 251 kts | 121° |
| 2026-04-22 00:36 | 25.19001 | 55.62531 | 6091 ft | 243 kts | 121° |
| 2026-04-22 00:36 | 25.18120 | 55.64120 | 5911 ft | 242 kts | 121° |
| 2026-04-22 00:37 | 25.17238 | 55.65707 | 5767 ft | 242 kts | 121° |
| 2026-04-22 00:37 | 25.16357 | 55.67285 | 5635 ft | 242 kts | 121° |
| 2026-04-22 00:37 | 25.15473 | 55.68862 | 5507 ft | 241 kts | 122° |
| 2026-04-22 00:37 | 25.14606 | 55.70411 | 5382 ft | 241 kts | 121° |
| 2026-04-22 00:38 | 25.13728 | 55.71983 | 5256 ft | 240 kts | 121° |
| 2026-04-22 00:38 | 25.12852 | 55.73549 | 5130 ft | 240 kts | 121° |
| 2026-04-22 00:38 | 25.11977 | 55.75110 | 5010 ft | 239 kts | 121° |
| 2026-04-22 00:38 | 25.11105 | 55.76668 | 4931 ft | 238 kts | 121° |
| 2026-04-22 00:39 | 25.10240 | 55.78222 | 4979 ft | 238 kts | 121° |
| 2026-04-22 00:39 | 25.09370 | 55.79777 | 4932 ft | 238 kts | 121° |
| 2026-04-22 00:39 | 25.08440 | 55.81282 | 4906 ft | 238 kts | 133° |
| 2026-04-22 00:39 | 25.07111 | 55.82296 | 5013 ft | 238 kts | 160° |
| 2026-04-22 00:40 | 25.05481 | 55.82528 | 5154 ft | 239 kts | 188° |
| 2026-04-22 00:40 | 25.03925 | 55.81929 | 5279 ft | 239 kts | 214° |
| 2026-04-22 00:40 | 25.02768 | 55.80639 | 5263 ft | 238 kts | 240° |
| 2026-04-22 00:40 | 25.02254 | 55.78924 | 5252 ft | 237 kts | 266° |
| 2026-04-22 00:41 | 25.02463 | 55.77134 | 5251 ft | 236 kts | 291° |
| 2026-04-22 00:41 | 25.02974 | 55.76079 | 5249 ft | 236 kts | 306° |
| 2026-04-22 00:41 | 25.03935 | 55.74612 | 5260 ft | 236 kts | 304° |
| 2026-04-22 00:41 | 25.05103 | 55.72583 | 5272 ft | 237 kts | 302° |
| 2026-04-22 00:42 | 25.05967 | 55.71043 | 5239 ft | 236 kts | 302° |
| 2026-04-22 00:42 | 25.06830 | 55.69499 | 5273 ft | 236 kts | 302° |
| 2026-04-22 00:42 | 25.07691 | 55.67957 | 5273 ft | 236 kts | 302° |
| 2026-04-22 00:42 | 25.08557 | 55.66413 | 5277 ft | 236 kts | 302° |
| 2026-04-22 00:43 | 25.09416 | 55.64871 | 5277 ft | 236 kts | 301° |
| 2026-04-22 00:43 | 25.10306 | 55.63356 | 5139 ft | 232 kts | 305° |
| 2026-04-22 00:43 | 25.10913 | 55.62396 | 4931 ft | 229 kts | 303° |
| 2026-04-22 00:43 | 25.12014 | 55.60446 | 4481 ft | 223 kts | 302° |
| 2026-04-22 00:44 | 25.12819 | 55.59000 | 4149 ft | 220 kts | 302° |
| 2026-04-22 00:44 | 25.13353 | 55.58034 | 3925 ft | 217 kts | 301° |
| 2026-04-22 00:44 | 25.14380 | 55.56181 | 3514 ft | 210 kts | 302° |
| 2026-04-22 00:44 | 25.15138 | 55.54810 | 3217 ft | 208 kts | 302° |
| 2026-04-22 00:45 | 25.15622 | 55.53936 | 3066 ft | 195 kts | 302° |
| 2026-04-22 00:45 | 25.16304 | 55.52704 | 2867 ft | 180 kts | 302° |
| 2026-04-22 00:45 | 25.16918 | 55.51597 | 2633 ft | 158 kts | 302° |
| 2026-04-22 00:45 | 25.17626 | 55.50322 | 2297 ft | 142 kts | 302° |
| 2026-04-22 00:46 | 25.18142 | 55.49392 | 2089 ft | 142 kts | 302° |
| 2026-04-22 00:46 | 25.18490 | 55.48764 | 1959 ft | 141 kts | 302° |
| 2026-04-22 00:46 | 25.19167 | 55.47540 | 1713 ft | 141 kts | 301° |
| 2026-04-22 00:46 | 25.19678 | 55.46617 | 1525 ft | 141 kts | 301° |
| 2026-04-22 00:47 | 25.20017 | 55.46004 | 1408 ft | 141 kts | 301° |
| 2026-04-22 00:47 | 25.20526 | 55.45086 | 1216 ft | 140 kts | 301° |
| 2026-04-22 00:47 | 25.21033 | 55.44170 | 1032 ft | 140 kts | 301° |
| 2026-04-22 00:47 | 25.21538 | 55.43256 | 845 ft | 139 kts | 301° |
| 2026-04-22 00:48 | 25.22201 | 55.42054 | 602 ft | 138 kts | 301° |
| 2026-04-22 00:48 | 25.22681 | 55.41142 | 417 ft | 137 kts | 300° |
| 2026-04-22 00:48 | 25.23011 | 55.40528 | 290 ft | 137 kts | 301° |
| 2026-04-22 00:48 | 25.23505 | 55.39646 | 116 ft | 137 kts | 302° |
| 2026-04-22 00:49 | 25.23996 | 55.38766 | 30 ft | 128 kts | 300° |
| 2026-04-22 00:49 | 25.24367 | 55.38095 | 31 ft | 73 kts | 301° |
| 2026-04-22 00:49 | 25.24537 | 55.37781 | 28 ft | 35 kts | 301° |
| 2026-04-22 00:49 | 25.24596 | 55.37631 | 27 ft | 21 kts | 287° |
| 2026-04-22 00:50 | 25.24615 | 55.37452 | 27 ft | 26 kts | 270° |
| 2026-04-22 00:50 | 25.24640 | 55.37233 | 27 ft | 32 kts | 302° |
| 2026-04-22 00:50 | 25.24756 | 55.37032 | 27 ft | 26 kts | 301° |
| 2026-04-22 00:50 | 25.24846 | 55.36866 | 27 ft | 22 kts | 286° |
| 2026-04-22 00:51 | 25.24884 | 55.36683 | 27 ft | 28 kts | 298° |
| 2026-04-22 00:51 | 25.24995 | 55.36485 | 27 ft | 33 kts | 302° |
| 2026-04-22 00:51 | 25.25119 | 55.36264 | 27 ft | 33 kts | 302° |
| 2026-04-22 00:51 | 25.25227 | 55.36070 | 27 ft | 29 kts | 302° |
| 2026-04-22 00:52 | 25.25344 | 55.35864 | 27 ft | 34 kts | 302° |
| 2026-04-22 00:52 | 25.25480 | 55.35627 | 27 ft | 37 kts | 300° |
| 2026-04-22 00:52 | 25.25598 | 55.35409 | 27 ft | 18 kts | 302° |
| 2026-04-22 00:52 | 25.25668 | 55.35286 | 27 ft | 20 kts | 302° |
| 2026-04-22 00:53 | 25.25745 | 55.35150 | 27 ft | 22 kts | 301° |
| 2026-04-22 00:53 | 25.25825 | 55.35001 | 27 ft | 24 kts | 302° |
| 2026-04-22 00:53 | 25.25860 | 55.34820 | 27 ft | 26 kts | 272° |
| 2026-04-22 00:53 | 25.25915 | 55.34660 | 27 ft | 20 kts | 298° |
| 2026-04-22 00:54 | 25.25985 | 55.34534 | 27 ft | 13 kts | 301° |
| 2026-04-22 00:54 | 25.25976 | 55.34490 | 27 ft | 5 kts | 209° |
| 2026-04-22 00:54 | 25.25940 | 55.34465 | 27 ft | 5 kts | 211° |
| 2026-04-22 00:54 | 25.25927 | 55.34456 | 27 ft | 1 kts | 211° |
| 2026-04-22 00:55 | 25.25926 | 55.34455 | 27 ft | 0 kts | 211° |